Genoa, Ohio
Current Conditions -  °F | °C
As of 10:53 AM on Sunday 21 Dec 2014 (Local Time) from KTDZ Reporting Station
Haze Haze  
Wind Chill: 26°   Ceiling: Unl
Heat Index: 32°   Visibility: 6mi
Dew Point: 25°   Wind: 7mph
Humidity: 75%   Direction: 170°S
Pressure: 30.33"   Gusts: NA
Location:  41.52°N, 83.36°W
Report Text: KTDZ 211553Z AUTO 17006KT 6SM HZ CLR 00/M04 A3033 RMK AO2 SLP278 T00001039 TSNO
Loading
Personal Weather Stations






























Interactive Weather Map New forecast layout! Learn more

10-Day Weather Forecast

Advertisements
Track Severe Weather on mobile